Svitzer Leixoes — CSXW6 — position and weather

sailwx.info

Track history (hours):
 
Tides and Currents Weather Stations Pressure Air Temp Water Temp Dewpoint Dewpoint Depression Visibility Wind Speed Wind Dir Waves Ship Positions

Svitzer Leixoes

Last reported at 2016-Sep-26 01:33 UTC. Time now 2016-Sep-26 02:00 UTC.
Position N 38°42' W 009°10'.

Length 28 m; draft 3.6 m.

Type: Towing. MMSI: 263622000.

Date/timePositionNaut miles runAvg speedWind from/ knotsBaromVisibWave heightAir tempDewpointWater temp
2016-Sep-26 01:33N 38°42' W 009°10'0 0.0
2016-Sep-26 00:27N 38°42' W 009°10'0 0.0
2016-Sep-25 21:24N 38°42' W 009°10'0 0.0
2016-Sep-25 17:29N 38°42' W 009°10'0 0.0
2016-Sep-25 16:32N 38°42' W 009°10'0 0.0
2016-Sep-25 15:22N 38°42' W 009°10'0 0.0
2016-Sep-25 14:32N 38°42' W 009°10'0 0.0
2016-Sep-25 12:30N 38°42' W 009°10'0 0.0
2016-Sep-25 11:32N 38°42' W 009°10'1 0.7
2016-Sep-25 10:28N 38°42' W 009°09'0 0.5
2016-Sep-25 09:33N 38°42' W 009°08'1 0.6
2016-Sep-25 07:33N 38°42' W 009°10'0 0.0
2016-Sep-25 04:33N 38°42' W 009°10'0 0.0
2016-Sep-25 00:33N 38°42' W 009°10'0 0.0
2016-Sep-24 22:31N 38°42' W 009°10'0 0.0
2016-Sep-24 21:17N 38°42' W 009°10'0 0.0
2016-Sep-24 19:26N 38°42' W 009°10'0 0.0
2016-Sep-24 18:26N 38°42' W 009°10'0 0.0
2016-Sep-24 17:22N 38°42' W 009°10'0 0.0
2016-Sep-24 16:23N 38°42' W 009°10'0 0.0
2016-Sep-24 14:28N 38°42' W 009°10'0 0.0
2016-Sep-24 12:33N 38°42' W 009°10'0 0.0
2016-Sep-24 10:33N 38°42' W 009°10'0 0.0
2016-Sep-24 09:27N 38°42' W 009°10'0 0.0
2016-Sep-24 03:33N 38°42' W 009°10'0 0.0
2016-Sep-24 02:33N 38°42' W 009°10'0 0.0
2016-Sep-24 01:33N 38°42' W 009°10'0 0.0
2016-Sep-24 00:29N 38°42' W 009°10'0 0.0
2016-Sep-23 19:28N 38°42' W 009°10'2 0.8
2016-Sep-23 17:33N 38°41' W 009°08'2 1.9
2016-Sep-23 16:33N 38°42' W 009°10'1 0.9
2016-Sep-23 15:33N 38°42' W 009°09'0 0.1
2016-Sep-23 13:32N 38°42' W 009°10'0 0.0
2016-Sep-23 09:30N 38°42' W 009°10'0 0.0
2016-Sep-23 06:33N 38°42' W 009°10'0 0.0
2016-Sep-23 04:33N 38°42' W 009°10'0 0.0
2016-Sep-23 03:33N 38°42' W 009°10'0 0.0
2016-Sep-23 02:23N 38°42' W 009°10'0 0.0
2016-Sep-23 01:33N 38°42' W 009°10'0 0.0
2016-Sep-23 00:33N 38°42' W 009°10'0 0.0
2016-Sep-22 23:34N 38°42' W 009°10'0 0.0
2016-Sep-22 20:34N 38°42' W 009°10'2 0.3
2016-Sep-22 12:31N 38°40' W 009°09'2 0.3
2016-Sep-22 04:31N 38°42' W 009°10'0 0.0
2016-Sep-22 03:32N 38°42' W 009°10'0 0.0
2016-Sep-22 00:33N 38°42' W 009°10'0 0.0
2016-Sep-21 23:27N 38°42' W 009°10'0 0.0
2016-Sep-21 22:34N 38°42' W 009°10'0 0.0
2016-Sep-21 19:33N 38°42' W 009°10'2 0.6
2016-Sep-21 16:30N 38°40' W 009°09'0 0.0
2016-Sep-21 09:33N 38°40' W 009°09'2 2.0
2016-Sep-21 08:33N 38°42' W 009°09'0 0.0
2016-Sep-21 05:33N 38°42' W 009°10'0 0.0
2016-Sep-21 03:32N 38°42' W 009°10'0 0.0
2016-Sep-21 02:31N 38°42' W 009°10'0 0.0
2016-Sep-20 17:33N 38°42' W 009°09'0 0.1
2016-Sep-20 14:33N 38°42' W 009°10'0 0.0
2016-Sep-20 13:32N 38°42' W 009°10'0 0.0
2016-Sep-20 10:33N 38°42' W 009°10'0 0.0
2016-Sep-20 08:34N 38°42' W 009°10'0 0.0
2016-Sep-20 07:32N 38°42' W 009°10'0 0.3
2016-Sep-20 06:33N 38°42' W 009°10'0 0.1
2016-Sep-20 02:32N 38°42' W 009°10'0 0.0
2016-Sep-19 23:34N 38°42' W 009°10'2 0.6
2016-Sep-19 19:33N 38°43' W 009°07'2 2.2
2016-Sep-19 18:33N 38°42' W 009°10'2 0.9
2016-Sep-19 16:33N 38°43' W 009°07'2 0.9
2016-Sep-19 14:31N 38°42' W 009°10'0 0.0
2016-Sep-19 13:30N 38°42' W 009°10'0 0.0
2016-Sep-19 12:31N 38°42' W 009°10'0 0.0
2016-Sep-19 11:33N 38°42' W 009°10'0 0.0
2016-Sep-19 09:31N 38°42' W 009°10'2 1.0
2016-Sep-19 07:33N 38°40' W 009°09'0 0.3
2016-Sep-19 06:34N 38°40' W 009°08'2 0.6
2016-Sep-19 03:21N 38°42' W 009°10'0 0.0
2016-Sep-19 02:31N 38°42' W 009°10'0 0.0
2016-Sep-19 00:33N 38°42' W 009°10'12 2.4
2016-Sep-18 19:33N 38°40' W 009°25'12 2.9
2016-Sep-18 15:33N 38°42' W 009°10'0 0.3
2016-Sep-18 14:33N 38°42' W 009°10'0 0.0
2016-Sep-18 10:32N 38°42' W 009°10'0 0.0
2016-Sep-18 09:31N 38°42' W 009°10'0 0.0
2016-Sep-18 02:33N 38°42' W 009°10'0 0.0
2016-Sep-18 01:33N 38°42' W 009°10'0 0.0
2016-Sep-18 00:33N 38°42' W 009°10'0 0.0
2016-Sep-17 22:33N 38°42' W 009°10'0 0.0
2016-Sep-17 21:33N 38°42' W 009°10'0 0.0
2016-Sep-17 20:33N 38°42' W 009°10'0 0.0
2016-Sep-17 19:15N 38°42' W 009°10'0 0.0
2016-Sep-17 13:33N 38°42' W 009°10'0 0.0
2016-Sep-17 12:33N 38°42' W 009°10'0 0.0
2016-Sep-17 10:33N 38°42' W 009°10'0 0.0
2016-Sep-17 09:33N 38°42' W 009°10'0 0.0
2016-Sep-17 08:33N 38°42' W 009°10'0 0.0
2016-Sep-17 07:33N 38°42' W 009°10'2 1.0
2016-Sep-17 05:33N 38°41' W 009°12'2 1.8
2016-Sep-17 04:33N 38°42' W 009°10'0 0.0
2016-Sep-17 00:26N 38°42' W 009°10'0 0.0
2016-Sep-16 17:33N 38°42' W 009°09'3 1.6
2016-Sep-16 15:29N 38°44' W 009°06'3 1.1
2016-Sep-16 12:29N 38°42' W 009°10'0 0.0
2016-Sep-16 09:33N 38°42' W 009°10'0 0.0
2016-Sep-16 07:33N 38°42' W 009°10'0 0.0
2016-Sep-16 03:33N 38°42' W 009°10'0 0.0
2016-Sep-16 02:32N 38°42' W 009°10'  
Track history (hours):
 
Tides and Currents Weather Stations Pressure Air Temp Water Temp Dewpoint Dewpoint Depression Visibility Wind Speed Wind Dir Waves Ship Positions

Svitzer Leixoes

Last reported at 2016-Sep-26 01:33 UTC. Time now 2016-Sep-26 02:00 UTC.
Position N 38°42' W 009°10'.

Length 28 m; draft 3.6 m.

Type: Towing. MMSI: 263622000.

Date/timePositionNaut miles runAvg speedWind from/ knotsBaromVisibWave heightAir tempDewpointWater temp
2016-Sep-26 01:33N 38°42' W 009°10'0 0.0
2016-Sep-26 00:27N 38°42' W 009°10'0 0.0
2016-Sep-25 21:24N 38°42' W 009°10'0 0.0
2016-Sep-25 17:29N 38°42' W 009°10'0 0.0
2016-Sep-25 16:32N 38°42' W 009°10'0 0.0
2016-Sep-25 15:22N 38°42' W 009°10'0 0.0
2016-Sep-25 14:32N 38°42' W 009°10'0 0.0
2016-Sep-25 12:30N 38°42' W 009°10'0 0.0
2016-Sep-25 11:32N 38°42' W 009°10'1 0.7
2016-Sep-25 10:28N 38°42' W 009°09'0 0.5
2016-Sep-25 09:33N 38°42' W 009°08'1 0.6
2016-Sep-25 07:33N 38°42' W 009°10'0 0.0
2016-Sep-25 04:33N 38°42' W 009°10'0 0.0
2016-Sep-25 00:33N 38°42' W 009°10'0 0.0
2016-Sep-24 22:31N 38°42' W 009°10'0 0.0
2016-Sep-24 21:17N 38°42' W 009°10'0 0.0
2016-Sep-24 19:26N 38°42' W 009°10'0 0.0
2016-Sep-24 18:26N 38°42' W 009°10'0 0.0
2016-Sep-24 17:22N 38°42' W 009°10'0 0.0
2016-Sep-24 16:23N 38°42' W 009°10'0 0.0
2016-Sep-24 14:28N 38°42' W 009°10'0 0.0
2016-Sep-24 12:33N 38°42' W 009°10'0 0.0
2016-Sep-24 10:33N 38°42' W 009°10'0 0.0
2016-Sep-24 09:27N 38°42' W 009°10'0 0.0
2016-Sep-24 03:33N 38°42' W 009°10'0 0.0
2016-Sep-24 02:33N 38°42' W 009°10'0 0.0
2016-Sep-24 01:33N 38°42' W 009°10'0 0.0
2016-Sep-24 00:29N 38°42' W 009°10'0 0.0
2016-Sep-23 19:28N 38°42' W 009°10'2 0.8
2016-Sep-23 17:33N 38°41' W 009°08'2 1.9
2016-Sep-23 16:33N 38°42' W 009°10'1 0.9
2016-Sep-23 15:33N 38°42' W 009°09'0 0.1
2016-Sep-23 13:32N 38°42' W 009°10'0 0.0
2016-Sep-23 09:30N 38°42' W 009°10'0 0.0
2016-Sep-23 06:33N 38°42' W 009°10'0 0.0
2016-Sep-23 04:33N 38°42' W 009°10'0 0.0
2016-Sep-23 03:33N 38°42' W 009°10'0 0.0
2016-Sep-23 02:23N 38°42' W 009°10'0 0.0
2016-Sep-23 01:33N 38°42' W 009°10'0 0.0
2016-Sep-23 00:33N 38°42' W 009°10'0 0.0
2016-Sep-22 23:34N 38°42' W 009°10'0 0.0
2016-Sep-22 20:34N 38°42' W 009°10'2 0.3
2016-Sep-22 12:31N 38°40' W 009°09'2 0.3
2016-Sep-22 04:31N 38°42' W 009°10'0 0.0
2016-Sep-22 03:32N 38°42' W 009°10'0 0.0
2016-Sep-22 00:33N 38°42' W 009°10'0 0.0
2016-Sep-21 23:27N 38°42' W 009°10'0 0.0
2016-Sep-21 22:34N 38°42' W 009°10'0 0.0
2016-Sep-21 19:33N 38°42' W 009°10'2 0.6
2016-Sep-21 16:30N 38°40' W 009°09'0 0.0
2016-Sep-21 09:33N 38°40' W 009°09'2 2.0
2016-Sep-21 08:33N 38°42' W 009°09'0 0.0
2016-Sep-21 05:33N 38°42' W 009°10'0 0.0
2016-Sep-21 03:32N 38°42' W 009°10'0 0.0
2016-Sep-21 02:31N 38°42' W 009°10'0 0.0
2016-Sep-20 17:33N 38°42' W 009°09'0 0.1
2016-Sep-20 14:33N 38°42' W 009°10'0 0.0
2016-Sep-20 13:32N 38°42' W 009°10'0 0.0
2016-Sep-20 10:33N 38°42' W 009°10'0 0.0
2016-Sep-20 08:34N 38°42' W 009°10'0 0.0
2016-Sep-20 07:32N 38°42' W 009°10'0 0.3
2016-Sep-20 06:33N 38°42' W 009°10'0 0.1
2016-Sep-20 02:32N 38°42' W 009°10'0 0.0
2016-Sep-19 23:34N 38°42' W 009°10'2 0.6
2016-Sep-19 19:33N 38°43' W 009°07'2 2.2
2016-Sep-19 18:33N 38°42' W 009°10'2 0.9
2016-Sep-19 16:33N 38°43' W 009°07'2 0.9
2016-Sep-19 14:31N 38°42' W 009°10'0 0.0
2016-Sep-19 13:30N 38°42' W 009°10'0 0.0
2016-Sep-19 12:31N 38°42' W 009°10'0 0.0
2016-Sep-19 11:33N 38°42' W 009°10'0 0.0
2016-Sep-19 09:31N 38°42' W 009°10'2 1.0
2016-Sep-19 07:33N 38°40' W 009°09'0 0.3
2016-Sep-19 06:34N 38°40' W 009°08'2 0.6
2016-Sep-19 03:21N 38°42' W 009°10'0 0.0
2016-Sep-19 02:31N 38°42' W 009°10'0 0.0
2016-Sep-19 00:33N 38°42' W 009°10'12 2.4
2016-Sep-18 19:33N 38°40' W 009°25'12 2.9
2016-Sep-18 15:33N 38°42' W 009°10'0 0.3
2016-Sep-18 14:33N 38°42' W 009°10'0 0.0
2016-Sep-18 10:32N 38°42' W 009°10'0 0.0
2016-Sep-18 09:31N 38°42' W 009°10'0 0.0
2016-Sep-18 02:33N 38°42' W 009°10'0 0.0
2016-Sep-18 01:33N 38°42' W 009°10'0 0.0
2016-Sep-18 00:33N 38°42' W 009°10'0 0.0
2016-Sep-17 22:33N 38°42' W 009°10'0 0.0
2016-Sep-17 21:33N 38°42' W 009°10'0 0.0
2016-Sep-17 20:33N 38°42' W 009°10'0 0.0
2016-Sep-17 19:15N 38°42' W 009°10'0 0.0
2016-Sep-17 13:33N 38°42' W 009°10'0 0.0
2016-Sep-17 12:33N 38°42' W 009°10'0 0.0
2016-Sep-17 10:33N 38°42' W 009°10'0 0.0
2016-Sep-17 09:33N 38°42' W 009°10'0 0.0
2016-Sep-17 08:33N 38°42' W 009°10'0 0.0
2016-Sep-17 07:33N 38°42' W 009°10'2 1.0
2016-Sep-17 05:33N 38°41' W 009°12'2 1.8
2016-Sep-17 04:33N 38°42' W 009°10'0 0.0
2016-Sep-17 00:26N 38°42' W 009°10'0 0.0
2016-Sep-16 17:33N 38°42' W 009°09'3 1.6
2016-Sep-16 15:29N 38°44' W 009°06'3 1.1
2016-Sep-16 12:29N 38°42' W 009°10'0 0.0
2016-Sep-16 09:33N 38°42' W 009°10'0 0.0
2016-Sep-16 07:33N 38°42' W 009°10'0 0.0
2016-Sep-16 03:33N 38°42' W 009°10'0 0.0
2016-Sep-16 02:32N 38°42' W 009°10'  

Dump ship's entire track history